createdAt,value
2022-08-22T00:01:28.109Z,50.40
2022-08-22T00:02:45.362Z,40.41
2022-08-22T00:02:53.534Z,44.56
2022-08-22T00:02:53.748Z,45.50
2022-08-22T00:03:12.821Z,45.64
2022-08-22T00:04:28.756Z,48.87
2022-08-22T00:07:39.170Z,50.00
2022-08-22T00:10:46.737Z,48.46
2022-08-22T00:13:26.164Z,50.26
2022-08-22T00:16:09.617Z,49.74
2022-08-22T00:18:51.198Z,48.73
2022-08-22T00:21:27.672Z,48.92
2022-08-22T00:24:37.215Z,48.65
2022-08-22T00:27:18.075Z,48.80
2022-08-22T00:29:54.723Z,48.53
2022-08-22T00:32:43.038Z,48.90
2022-08-22T00:35:26.989Z,50.83
2022-08-22T00:38:18.769Z,49.28
2022-08-22T00:41:31.635Z,49.23
2022-08-22T00:44:28.201Z,50.13
2022-08-22T00:47:18.637Z,49.48
2022-08-22T00:50:04.535Z,49.76
2022-08-22T00:52:59.912Z,50.09
2022-08-22T00:56:03.476Z,49.74
2022-08-22T00:59:11.996Z,50.90
2022-08-22T01:02:15.140Z,50.57
2022-08-22T01:04:58.313Z,51.10
2022-08-22T01:07:49.237Z,49.95
2022-08-22T01:10:28.721Z,50.61
2022-08-22T01:13:28.499Z,51.31
2022-08-22T01:16:24.683Z,50.20
2022-08-22T01:19:07.078Z,51.31
2022-08-22T01:21:59.122Z,50.36
2022-08-22T01:24:36.016Z,50.93
2022-08-22T01:27:35.873Z,50.86
2022-08-22T01:30:39.466Z,50.94
2022-08-22T01:33:35.294Z,51.33
2022-08-22T01:36:18.450Z,51.49
2022-08-22T01:39:14.324Z,51.51
2022-08-22T01:42:07.127Z,50.73
2022-08-22T01:44:56.369Z,50.38
2022-08-22T01:47:37.514Z,49.91
2022-08-22T01:50:26.024Z,51.13
2022-08-22T01:53:06.089Z,50.39
2022-08-22T01:56:25.873Z,51.19
2022-08-22T01:59:02.879Z,50.67
2022-08-22T02:01:42.603Z,51.29
2022-08-22T02:04:16.421Z,50.57
2022-08-22T02:07:09.260Z,51.36
2022-08-22T02:10:05.365Z,51.15
2022-08-22T02:12:45.338Z,51.33
2022-08-22T02:15:23.076Z,50.55
2022-08-22T02:18:02.936Z,50.56
2022-08-22T02:20:36.891Z,51.44
2022-08-22T02:23:04.632Z,50.47
2022-08-22T02:25:46.813Z,51.17
2022-08-22T02:28:39.455Z,50.59
2022-08-22T02:31:27.209Z,51.02
2022-08-22T02:33:58.679Z,51.00
2022-08-22T02:36:50.729Z,50.82
2022-08-22T02:39:50.497Z,50.48
2022-08-22T02:42:23.323Z,50.94
2022-08-22T02:45:04.077Z,51.67
2022-08-22T02:48:13.484Z,52.03
2022-08-22T02:51:02.023Z,51.95
2022-08-22T02:53:46.468Z,51.88
2022-08-22T02:56:22.305Z,52.08
2022-08-22T02:59:12.403Z,52.09
2022-08-22T03:01:44.991Z,52.10
2022-08-22T03:04:46.966Z,52.45
2022-08-22T03:07:20.722Z,51.66
2022-08-22T03:10:10.992Z,52.16
2022-08-22T03:13:11.535Z,52.20
2022-08-22T03:15:49.370Z,51.33
2022-08-22T03:18:17.056Z,51.85
2022-08-22T03:20:54.270Z,51.82
2022-08-22T03:24:12.202Z,51.72
2022-08-22T03:26:52.584Z,51.42
2022-08-22T03:29:29.357Z,51.58
2022-08-22T03:32:09.419Z,51.67
2022-08-22T03:34:37.942Z,51.35
2022-08-22T03:37:24.530Z,51.04
2022-08-22T03:39:55.374Z,50.83
2022-08-22T03:42:41.519Z,50.78
2022-08-22T03:45:21.190Z,51.50
2022-08-22T03:48:12.295Z,51.26
2022-08-22T03:51:02.085Z,51.15
2022-08-22T03:54:07.681Z,50.63
2022-08-22T03:57:07.672Z,50.92
2022-08-22T04:00:00.307Z,50.57
2022-08-22T04:02:49.149Z,50.27
2022-08-22T04:05:28.848Z,50.26
2022-08-22T04:08:14.571Z,50.29
2022-08-22T04:11:14.698Z,50.16
2022-08-22T04:14:19.349Z,49.82
2022-08-22T04:17:05.650Z,49.65
2022-08-22T04:20:11.035Z,49.24
2022-08-22T04:23:03.796Z,49.56
2022-08-22T04:28:44.092Z,49.18
2022-08-22T04:31:14.558Z,48.47
2022-08-22T04:34:10.146Z,47.80
2022-08-22T04:36:48.534Z,47.31
2022-08-22T04:39:22.212Z,46.31
2022-08-22T04:42:11.135Z,46.25
2022-08-22T04:44:52.807Z,46.22
2022-08-22T04:48:01.849Z,45.63
2022-08-22T04:50:41.249Z,45.46
2022-08-22T04:53:29.698Z,45.09
2022-08-22T04:56:45.491Z,44.39
2022-08-22T04:59:17.363Z,43.94
2022-08-22T05:01:47.228Z,43.46
2022-08-22T05:04:23.436Z,42.84
2022-08-22T05:06:57.102Z,42.58
2022-08-22T05:09:31.012Z,41.97
2022-08-22T05:12:07.593Z,41.48
2022-08-22T05:15:10.404Z,41.00
2022-08-22T05:17:41.989Z,39.84
2022-08-22T05:20:15.833Z,39.23
2022-08-22T05:22:47.949Z,39.39
2022-08-22T05:25:22.204Z,39.51
2022-08-22T05:28:05.571Z,39.84
2022-08-22T05:30:35.299Z,40.45
2022-08-22T05:33:27.613Z,40.16
2022-08-22T05:36:00.532Z,40.58
2022-08-22T05:38:32.423Z,40.57
2022-08-22T05:41:08.289Z,41.08
2022-08-22T05:43:43.663Z,41.36
2022-08-22T05:46:26.963Z,40.84
2022-08-22T05:49:00.176Z,41.30
2022-08-22T05:51:40.129Z,41.52
2022-08-22T05:54:21.961Z,41.26
2022-08-22T05:57:29.202Z,41.18
2022-08-22T06:00:11.797Z,40.75
2022-08-22T06:02:58.340Z,40.35
2022-08-22T06:05:29.563Z,39.77
2022-08-22T06:08:34.785Z,39.60
2022-08-22T06:11:15.206Z,40.06
2022-08-22T06:13:52.290Z,39.46
2022-08-22T06:16:33.561Z,39.09
2022-08-22T06:19:05.090Z,39.60
2022-08-22T06:21:51.094Z,39.03
2022-08-22T06:24:28.044Z,38.88
2022-08-22T06:27:04.320Z,38.68
2022-08-22T06:29:46.124Z,38.89
2022-08-22T06:35:15.840Z,38.28
2022-08-22T06:37:46.634Z,38.36
2022-08-22T06:40:17.699Z,38.16
2022-08-22T06:42:50.763Z,37.64
2022-08-22T06:45:25.658Z,37.21
2022-08-22T06:48:20.409Z,36.83
2022-08-22T06:50:58.885Z,36.31
2022-08-22T06:54:03.897Z,36.00
2022-08-22T06:56:40.066Z,35.72
2022-08-22T06:59:13.065Z,35.86
2022-08-22T07:01:51.092Z,35.49
2022-08-22T07:04:26.289Z,35.45
2022-08-22T07:07:01.037Z,35.75
2022-08-22T07:09:32.493Z,35.91
2022-08-22T07:12:04.959Z,35.60
2022-08-22T07:14:41.894Z,35.65
2022-08-22T07:17:19.140Z,34.71
2022-08-22T07:19:55.778Z,33.96
2022-08-22T07:22:28.935Z,34.38
2022-08-22T07:25:03.347Z,34.98
2022-08-22T07:28:08.080Z,34.71
2022-08-22T07:30:59.191Z,34.12
2022-08-22T07:33:50.044Z,32.75
2022-08-22T07:36:31.794Z,33.26
2022-08-22T07:39:18.457Z,32.64
2022-08-22T07:42:14.223Z,32.51
2022-08-22T07:45:03.457Z,32.21
2022-08-22T07:47:41.328Z,32.61
2022-08-22T07:50:17.465Z,32.76
2022-08-22T07:52:46.443Z,32.67
2022-08-22T07:55:21.046Z,32.87
2022-08-22T07:58:04.177Z,32.32
2022-08-22T08:00:32.995Z,31.60
2022-08-22T08:03:09.152Z,30.90
2022-08-22T08:05:38.778Z,30.72
2022-08-22T08:08:24.809Z,29.93
2022-08-22T08:10:56.581Z,30.76
2022-08-22T08:13:34.451Z,30.67
2022-08-22T08:16:05.238Z,31.02
2022-08-22T08:18:36.265Z,30.51
2022-08-22T08:21:08.724Z,30.45
2022-08-22T08:23:45.465Z,30.11
2022-08-22T08:26:21.867Z,29.98
2022-08-22T08:28:54.667Z,29.12
2022-08-22T08:31:44.637Z,29.24
2022-08-22T08:34:20.354Z,25.68
2022-08-22T08:36:52.030Z,29.88
2022-08-22T08:39:35.134Z,30.09
2022-08-22T08:42:09.217Z,29.43
2022-08-22T08:47:59.903Z,30.00
2022-08-22T08:51:06.640Z,29.25
2022-08-22T08:53:44.790Z,30.37
2022-08-22T08:56:19.875Z,29.51
2022-08-22T08:59:09.906Z,28.68
2022-08-22T09:02:09.035Z,28.56
2022-08-22T09:05:13.019Z,27.56
2022-08-22T09:07:50.436Z,29.41
2022-08-22T09:10:54.132Z,29.43
2022-08-22T09:17:21.140Z,30.80
2022-08-22T09:20:19.458Z,29.70
2022-08-22T09:23:05.203Z,27.92
2022-08-22T09:29:16.470Z,29.22
2022-08-22T09:32:05.776Z,28.82
2022-08-22T09:34:54.922Z,28.64
2022-08-22T09:37:58.656Z,29.44
2022-08-22T09:40:35.424Z,25.99
2022-08-22T09:43:13.210Z,27.24
2022-08-22T09:46:01.925Z,29.51
2022-08-22T09:49:07.140Z,29.41
2022-08-22T09:51:44.418Z,28.21
2022-08-22T09:54:18.852Z,28.88
2022-08-22T09:57:01.478Z,26.83
2022-08-22T09:59:48.111Z,28.33
2022-08-22T10:02:43.378Z,28.83
2022-08-22T10:05:40.402Z,28.79
2022-08-22T10:08:33.362Z,27.08
2022-08-22T10:11:23.855Z,25.50
2022-08-22T10:14:00.870Z,24.38
2022-08-22T10:16:57.815Z,27.29
2022-08-22T10:19:42.088Z,27.89
2022-08-22T10:22:47.733Z,27.25
2022-08-22T10:25:33.791Z,26.99
2022-08-22T10:28:22.359Z,25.35
2022-08-22T10:31:25.193Z,25.49
2022-08-22T10:34:02.182Z,25.62
2022-08-22T10:36:45.544Z,24.63
2022-08-22T10:39:23.831Z,25.84
2022-08-22T10:42:23.616Z,23.37
2022-08-22T10:45:16.504Z,25.85
2022-08-22T10:47:54.652Z,23.29
2022-08-22T10:50:36.939Z,26.31
2022-08-22T10:53:29.016Z,27.07
2022-08-22T10:56:06.702Z,23.40
2022-08-22T10:58:40.916Z,26.62
2022-08-22T11:01:37.808Z,26.13
2022-08-22T11:04:18.853Z,26.34
2022-08-22T11:07:14.772Z,26.79
2022-08-22T11:09:44.477Z,24.08
2022-08-22T11:12:41.721Z,25.55
2022-08-22T11:15:26.242Z,20.94
2022-08-22T11:18:21.248Z,25.20
2022-08-22T11:20:59.727Z,23.01
2022-08-22T11:23:43.024Z,25.42
2022-08-22T11:26:29.913Z,25.08
2022-08-22T11:29:18.804Z,23.77
2022-08-22T11:31:52.213Z,21.02
2022-08-22T11:34:38.612Z,22.77
2022-08-22T11:37:15.440Z,24.03
2022-08-22T11:39:57.652Z,22.53
2022-08-22T11:42:47.439Z,24.27
2022-08-22T11:45:23.954Z,23.55
2022-08-22T11:48:00.748Z,25.16
2022-08-22T11:50:35.304Z,25.43
2022-08-22T11:53:07.840Z,25.96
2022-08-22T11:56:05.787Z,18.48
2022-08-22T11:58:56.683Z,26.17
2022-08-22T12:01:37.107Z,25.10
2022-08-22T12:04:12.715Z,22.10
2022-08-22T12:07:11.190Z,21.43
2022-08-22T12:10:07.132Z,21.69
2022-08-22T12:13:06.399Z,19.89
2022-08-22T12:16:00.859Z,21.50
2022-08-22T12:18:56.500Z,20.06
2022-08-22T12:21:24.501Z,19.70
2022-08-22T12:24:00.904Z,21.06
2022-08-22T12:27:12.577Z,21.29
2022-08-22T12:30:05.284Z,19.55
2022-08-22T12:33:03.436Z,20.09
2022-08-22T12:35:42.494Z,19.24
2022-08-22T12:38:29.427Z,20.55
2022-08-22T12:41:28.529Z,20.59
2022-08-22T12:44:25.455Z,21.13
2022-08-22T12:47:02.828Z,23.22
2022-08-22T12:50:01.341Z,20.51
2022-08-22T12:52:59.033Z,19.62
2022-08-22T12:55:36.679Z,22.91
2022-08-22T12:58:56.089Z,19.51
2022-08-22T13:01:34.075Z,21.21
2022-08-22T13:04:08.238Z,19.77
2022-08-22T13:06:37.976Z,20.17
2022-08-22T13:09:28.915Z,20.68
2022-08-22T13:12:04.998Z,22.69
2022-08-22T13:14:35.125Z,21.77
2022-08-22T13:17:24.320Z,21.35
2022-08-22T13:20:21.267Z,21.41
2022-08-22T13:22:49.603Z,23.02
2022-08-22T13:25:26.587Z,21.16
2022-08-22T13:27:59.462Z,23.14
2022-08-22T13:30:33.930Z,23.39
2022-08-22T13:33:08.934Z,23.26
2022-08-22T13:35:44.785Z,22.04
2022-08-22T13:38:28.373Z,21.39
2022-08-22T13:41:02.344Z,22.38
2022-08-22T13:43:56.270Z,22.46
2022-08-22T13:46:28.676Z,24.20
2022-08-22T13:49:01.119Z,21.59
2022-08-22T13:51:40.388Z,21.49
2022-08-22T13:54:11.965Z,22.99
2022-08-22T13:56:50.629Z,21.05
2022-08-22T13:59:50.974Z,21.84
2022-08-22T14:02:47.925Z,21.62
2022-08-22T14:05:33.541Z,21.48
2022-08-22T14:08:12.666Z,22.80
2022-08-22T14:11:02.105Z,23.28
2022-08-22T14:13:49.653Z,23.93
2022-08-22T14:16:26.095Z,24.26
2022-08-22T14:19:06.124Z,23.47
2022-08-22T14:21:43.457Z,24.33
2022-08-22T14:24:45.750Z,24.98
2022-08-22T14:27:27.289Z,25.04
2022-08-22T14:30:01.665Z,25.76
2022-08-22T14:32:42.388Z,25.83
2022-08-22T14:35:34.691Z,26.82
2022-08-22T14:38:29.936Z,28.85
2022-08-22T14:41:05.766Z,28.59
2022-08-22T14:43:57.235Z,28.17
2022-08-22T14:46:31.936Z,27.57
2022-08-22T14:49:06.169Z,28.54
2022-08-22T14:51:34.034Z,27.46
2022-08-22T14:54:21.394Z,29.29
2022-08-22T14:56:52.432Z,26.78
2022-08-22T14:59:35.964Z,28.51
2022-08-22T15:02:10.569Z,29.83
2022-08-22T15:04:46.213Z,29.43
2022-08-22T15:07:33.856Z,29.69
2022-08-22T15:10:26.910Z,29.77
2022-08-22T15:13:03.274Z,30.14
2022-08-22T15:15:41.210Z,30.22
2022-08-22T15:18:35.336Z,30.40
2022-08-22T15:21:11.298Z,30.84
2022-08-22T15:23:45.189Z,30.41
2022-08-22T15:26:25.084Z,31.13
2022-08-22T15:29:04.322Z,30.56
2022-08-22T15:31:33.041Z,31.46
2022-08-22T15:34:13.634Z,30.66
2022-08-22T15:37:08.320Z,31.05
2022-08-22T15:39:58.510Z,31.61
2022-08-22T15:42:33.453Z,31.54
2022-08-22T15:45:02.672Z,32.06
2022-08-22T15:47:41.914Z,32.34
2022-08-22T15:50:27.680Z,32.22
2022-08-22T15:53:22.520Z,32.40
2022-08-22T15:56:05.627Z,33.14
2022-08-22T15:58:48.964Z,32.95
2022-08-22T16:01:22.385Z,32.59
2022-08-22T16:04:05.413Z,32.75
2022-08-22T16:06:55.233Z,31.97
2022-08-22T16:09:39.588Z,33.55
2022-08-22T16:12:27.093Z,33.76
2022-08-22T16:14:56.037Z,33.43
2022-08-22T16:17:45.504Z,33.72
2022-08-22T16:20:20.070Z,33.12
2022-08-22T16:22:57.000Z,34.54
2022-08-22T16:25:47.716Z,32.92
2022-08-22T16:28:41.380Z,34.82
2022-08-22T16:31:19.197Z,33.82
2022-08-22T16:33:48.201Z,35.34
2022-08-22T16:36:44.360Z,35.22
2022-08-22T16:39:24.074Z,35.30
2022-08-22T16:41:56.655Z,35.63
2022-08-22T16:44:30.406Z,35.25
2022-08-22T16:47:12.127Z,36.43
2022-08-22T16:49:52.163Z,36.46
2022-08-22T16:52:26.352Z,35.80
2022-08-22T16:58:11.084Z,36.56
2022-08-22T17:01:00.275Z,37.29
2022-08-22T17:04:09.804Z,36.61
2022-08-22T17:06:48.152Z,38.36
2022-08-22T17:09:43.453Z,37.87
2022-08-22T17:12:17.067Z,37.95
2022-08-22T17:15:12.523Z,38.01
2022-08-22T17:18:17.742Z,38.74
2022-08-22T17:20:56.422Z,39.31
2022-08-22T17:23:38.936Z,38.95
2022-08-22T17:26:28.538Z,39.47
2022-08-22T17:29:27.299Z,41.31
2022-08-22T17:32:17.063Z,40.88
2022-08-22T17:34:58.841Z,41.17
2022-08-22T17:37:38.067Z,42.35
2022-08-22T17:40:36.675Z,42.03
2022-08-22T17:43:07.882Z,42.12
2022-08-22T17:45:50.742Z,40.85
2022-08-22T17:48:26.156Z,41.63
2022-08-22T17:51:13.591Z,41.11
2022-08-22T17:53:50.923Z,41.48
2022-08-22T17:56:41.338Z,41.64
2022-08-22T17:59:28.243Z,41.14
2022-08-22T18:02:02.451Z,41.15
2022-08-22T18:05:16.756Z,41.52
2022-08-22T18:07:50.618Z,42.06
2022-08-22T18:10:25.336Z,41.71
2022-08-22T18:13:07.359Z,41.45
2022-08-22T18:15:52.646Z,43.30
2022-08-22T18:18:32.283Z,42.54
2022-08-22T18:21:06.463Z,43.55
2022-08-22T18:23:41.742Z,43.47
2022-08-22T18:29:53.595Z,43.79
2022-08-22T18:32:29.669Z,43.79
2022-08-22T18:35:10.657Z,44.39
2022-08-22T18:37:47.045Z,43.52
2022-08-22T18:40:49.687Z,43.38
2022-08-22T18:43:24.296Z,40.75
2022-08-22T18:45:52.079Z,41.25
2022-08-22T18:48:29.884Z,40.98
2022-08-22T18:51:38.267Z,43.88
2022-08-22T18:54:11.462Z,43.40
2022-08-22T18:57:17.454Z,45.66
2022-08-22T18:59:57.697Z,45.50
2022-08-22T19:02:28.551Z,44.86
2022-08-22T19:05:15.272Z,46.59
2022-08-22T19:07:52.286Z,45.63
2022-08-22T19:10:48.006Z,45.54
2022-08-22T19:13:28.899Z,45.69
2022-08-22T19:16:23.046Z,45.23
2022-08-22T19:19:17.411Z,47.34
2022-08-22T19:22:19.699Z,46.06
2022-08-22T19:25:09.186Z,45.38
2022-08-22T19:27:58.316Z,44.43
2022-08-22T19:30:41.732Z,47.58
2022-08-22T19:33:19.949Z,45.62
2022-08-22T19:35:54.847Z,51.12
2022-08-22T19:38:54.270Z,48.90
2022-08-22T19:41:45.670Z,49.21
2022-08-22T19:44:20.044Z,47.94
2022-08-22T19:47:18.304Z,46.72
2022-08-22T19:50:00.748Z,45.48
2022-08-22T19:52:34.305Z,46.42
2022-08-22T19:55:19.124Z,49.79
2022-08-22T19:57:58.858Z,47.70
2022-08-22T20:00:53.634Z,45.62
2022-08-22T20:03:37.748Z,47.01
2022-08-22T20:06:43.569Z,47.34
2022-08-22T20:09:28.990Z,49.83
2022-08-22T20:12:22.765Z,52.97
2022-08-22T20:14:51.570Z,51.33
2022-08-22T20:17:25.293Z,51.87
2022-08-22T20:20:19.239Z,51.84
2022-08-22T20:23:06.118Z,51.03
2022-08-22T20:25:49.627Z,52.15
2022-08-22T20:28:34.872Z,48.60
2022-08-22T20:31:07.875Z,53.24
2022-08-22T20:33:40.507Z,53.89
2022-08-22T20:36:27.615Z,55.29
2022-08-22T20:39:15.447Z,53.56
2022-08-22T20:41:50.144Z,52.79
2022-08-22T20:44:28.667Z,55.45
2022-08-22T20:47:06.022Z,50.55
2022-08-22T20:49:46.790Z,55.09
2022-08-22T20:52:32.653Z,55.36
2022-08-22T20:55:12.522Z,56.84
2022-08-22T20:57:55.842Z,55.00
2022-08-22T21:00:44.796Z,53.88
2022-08-22T21:03:25.541Z,53.63
2022-08-22T21:05:53.297Z,49.61
2022-08-22T21:08:26.368Z,51.32
2022-08-22T21:11:20.457Z,53.85
2022-08-22T21:13:49.554Z,53.30
2022-08-22T21:16:31.689Z,57.27
2022-08-22T21:19:04.778Z,56.42
2022-08-22T21:21:34.773Z,55.11
2022-08-22T21:24:06.641Z,59.17
2022-08-22T21:26:46.901Z,57.56
2022-08-22T21:29:14.991Z,54.03
2022-08-22T21:31:59.066Z,56.49
2022-08-22T21:34:41.734Z,55.82
2022-08-22T21:37:22.880Z,56.09
2022-08-22T21:39:59.580Z,55.41
2022-08-22T21:42:35.701Z,58.59
2022-08-22T21:45:08.590Z,54.53
2022-08-22T21:47:40.251Z,59.51
2022-08-22T21:50:25.028Z,59.88
2022-08-22T21:52:55.846Z,58.16
2022-08-22T21:55:36.239Z,57.40
2022-08-22T21:58:35.025Z,56.90
2022-08-22T22:01:25.056Z,58.00
2022-08-22T22:03:55.921Z,60.14
2022-08-22T22:06:23.599Z,56.09
2022-08-22T22:08:51.429Z,55.46
2022-08-22T22:11:19.725Z,61.22
2022-08-22T22:13:47.607Z,57.37
2022-08-22T22:16:21.387Z,61.92
2022-08-22T22:18:49.522Z,64.21
2022-08-22T22:21:18.730Z,58.55
2022-08-22T22:23:46.819Z,55.39
2022-08-22T22:26:15.061Z,54.94
2022-08-22T22:28:50.067Z,56.54
2022-08-22T22:31:18.631Z,57.54
2022-08-22T22:33:46.671Z,58.58
2022-08-22T22:36:23.972Z,60.31
2022-08-22T22:38:53.796Z,55.78
2022-08-22T22:41:25.841Z,61.33
2022-08-22T22:43:55.164Z,61.56
2022-08-22T22:46:23.295Z,59.43
2022-08-22T22:48:51.159Z,61.44
2022-08-22T22:51:20.115Z,58.18
2022-08-22T22:53:47.889Z,58.68
2022-08-22T22:56:20.684Z,60.65
2022-08-22T22:59:01.025Z,57.39
2022-08-22T23:02:01.815Z,60.00
2022-08-22T23:04:31.416Z,59.81
2022-08-22T23:06:59.288Z,56.43
2022-08-22T23:09:28.280Z,57.71
2022-08-22T23:12:08.383Z,57.51
2022-08-22T23:14:36.431Z,57.22
2022-08-22T23:17:04.671Z,56.44
2022-08-22T23:19:33.324Z,54.93
2022-08-22T23:22:02.361Z,58.51
2022-08-22T23:24:34.077Z,58.86
2022-08-22T23:27:02.945Z,54.90
2022-08-22T23:29:30.753Z,56.80
2022-08-22T23:32:01.778Z,60.77
2022-08-22T23:34:36.365Z,55.06
2022-08-22T23:39:52.358Z,59.69
2022-08-22T23:42:20.226Z,55.99
2022-08-22T23:44:48.459Z,59.46
2022-08-22T23:47:16.753Z,60.96
2022-08-22T23:49:44.846Z,57.18
2022-08-22T23:52:13.681Z,59.75
2022-08-22T23:54:42.182Z,61.37
2022-08-22T23:57:12.073Z,59.92
2022-08-22T23:59:48.454Z,61.96
